createdAt,value
2023-02-06T00:00:03.083Z,6.97
2023-02-06T00:02:32.189Z,6.50
2023-02-06T00:04:59.422Z,6.72
2023-02-06T00:07:26.578Z,6.40
2023-02-06T00:09:53.796Z,5.50
2023-02-06T00:12:20.936Z,6.45
2023-02-06T00:14:47.977Z,6.82
2023-02-06T00:17:15.028Z,5.95
2023-02-06T00:19:43.134Z,6.72
2023-02-06T00:22:10.571Z,6.97
2023-02-06T00:24:37.670Z,6.65
2023-02-06T00:27:04.787Z,6.65
2023-02-06T00:29:31.813Z,6.78
2023-02-06T00:31:58.845Z,6.47
2023-02-06T00:34:26.216Z,6.55
2023-02-06T00:36:53.354Z,6.65
2023-02-06T00:39:20.624Z,5.97
2023-02-06T00:41:47.852Z,6.38
2023-02-06T00:44:14.966Z,6.22
2023-02-06T00:46:42.392Z,4.55
2023-02-06T00:49:09.682Z,6.00
2023-02-06T00:51:38.980Z,4.70
2023-02-06T00:54:07.759Z,7.03
2023-02-06T00:56:35.674Z,7.25
2023-02-06T00:59:02.837Z,5.82
2023-02-06T01:01:30.049Z,6.70
2023-02-06T01:03:57.182Z,5.90
2023-02-06T01:06:24.575Z,7.10
2023-02-06T01:08:51.589Z,6.35
2023-02-06T01:11:21.577Z,5.65
2023-02-06T01:13:49.181Z,5.93
2023-02-06T01:16:20.767Z,5.97
2023-02-06T01:18:48.691Z,6.05
2023-02-06T01:21:20.590Z,6.25
2023-02-06T01:23:49.546Z,6.57
2023-02-06T01:26:20.911Z,6.80
2023-02-06T01:28:49.325Z,6.03
2023-02-06T01:31:22.915Z,4.95
2023-02-06T01:33:51.382Z,6.18
2023-02-06T01:36:20.529Z,6.75
2023-02-06T01:38:48.721Z,4.55
2023-02-06T01:41:17.729Z,6.45
2023-02-06T01:43:48.069Z,6.22
2023-02-06T01:46:15.200Z,5.88
2023-02-06T01:48:49.423Z,6.47
2023-02-06T01:51:23.864Z,5.78
2023-02-06T01:53:54.373Z,6.47
2023-02-06T01:56:22.529Z,7.40
2023-02-06T01:58:54.403Z,4.75
2023-02-06T02:01:21.797Z,5.65
2023-02-06T02:03:52.915Z,6.43
2023-02-06T02:06:25.186Z,5.57
2023-02-06T02:08:58.198Z,5.70
2023-02-06T02:11:32.693Z,6.60
2023-02-06T02:14:02.176Z,7.00
2023-02-06T02:16:52.529Z,5.85
2023-02-06T02:19:52.528Z,6.78
2023-02-06T02:22:30.816Z,6.10
2023-02-06T02:25:25.733Z,5.65
2023-02-06T02:27:52.801Z,6.32
2023-02-06T02:30:41.998Z,6.53
2023-02-06T02:33:48.073Z,6.50
2023-02-06T02:36:20.967Z,7.45
2023-02-06T02:39:09.637Z,6.22
2023-02-06T02:41:50.880Z,6.20
2023-02-06T02:44:38.776Z,6.53
2023-02-06T02:47:12.434Z,5.00
2023-02-06T02:49:41.860Z,6.72
2023-02-06T02:52:11.186Z,6.03
2023-02-06T02:54:38.278Z,6.38
2023-02-06T02:57:17.553Z,6.10
2023-02-06T02:59:47.198Z,6.60
2023-02-06T03:02:37.060Z,5.57
2023-02-06T03:05:08.175Z,5.50
2023-02-06T03:07:56.914Z,5.97
2023-02-06T03:10:39.080Z,5.80
2023-02-06T03:13:27.380Z,6.95
2023-02-06T03:15:54.478Z,5.63
2023-02-06T03:18:31.188Z,5.78
2023-02-06T03:21:00.122Z,5.78
2023-02-06T03:23:33.726Z,6.88
2023-02-06T03:26:05.938Z,7.03
2023-02-06T03:28:36.267Z,6.55
2023-02-06T03:31:07.898Z,5.30
2023-02-06T03:33:45.607Z,6.38
2023-02-06T03:36:18.495Z,6.13
2023-02-06T03:38:48.317Z,5.97
2023-02-06T03:41:18.451Z,6.05
2023-02-06T03:43:48.760Z,6.07
2023-02-06T03:46:18.493Z,5.78
2023-02-06T03:48:52.284Z,6.60
2023-02-06T03:51:29.153Z,6.88
2023-02-06T03:54:00.054Z,5.00
2023-02-06T03:56:55.002Z,6.35
2023-02-06T03:59:22.868Z,6.68
2023-02-06T04:01:56.718Z,6.45
2023-02-06T04:04:29.378Z,5.97
2023-02-06T04:07:03.734Z,6.43
2023-02-06T04:09:30.866Z,3.85
2023-02-06T04:11:57.986Z,4.93
2023-02-06T04:14:25.038Z,6.00
2023-02-06T04:16:52.372Z,6.43
2023-02-06T04:19:19.604Z,6.05
2023-02-06T04:21:46.700Z,7.15
2023-02-06T04:24:13.804Z,5.57
2023-02-06T04:26:43.512Z,6.07
2023-02-06T04:29:12.962Z,5.07
2023-02-06T04:31:41.191Z,4.65
2023-02-06T04:34:08.571Z,6.25
2023-02-06T04:36:36.011Z,6.25
2023-02-06T04:39:06.939Z,6.03
2023-02-06T04:41:34.287Z,5.88
2023-02-06T04:44:01.374Z,6.55
2023-02-06T04:46:28.585Z,6.20
2023-02-06T04:48:55.623Z,5.05
2023-02-06T04:51:22.826Z,5.95
2023-02-06T04:53:49.937Z,6.32
2023-02-06T04:56:16.964Z,5.82
2023-02-06T04:58:44.040Z,6.60
2023-02-06T05:01:11.215Z,6.07
2023-02-06T05:03:38.406Z,5.78
2023-02-06T05:06:05.776Z,5.45
2023-02-06T05:08:32.986Z,5.15
2023-02-06T05:11:00.074Z,5.55
2023-02-06T05:13:27.156Z,5.40
2023-02-06T05:15:54.314Z,6.35
2023-02-06T05:18:21.534Z,6.18
2023-02-06T05:20:48.750Z,5.90
2023-02-06T05:23:15.840Z,6.38
2023-02-06T05:25:42.943Z,5.90
2023-02-06T05:28:10.184Z,6.65
2023-02-06T05:30:37.581Z,5.78
2023-02-06T05:33:04.694Z,5.90
2023-02-06T05:35:31.922Z,6.38
2023-02-06T05:37:59.023Z,7.10
2023-02-06T05:40:26.380Z,5.80
2023-02-06T05:42:53.591Z,6.50
2023-02-06T05:45:20.781Z,5.95
2023-02-06T05:47:47.912Z,5.85
2023-02-06T05:50:15.412Z,5.57
2023-02-06T05:52:42.585Z,6.72
2023-02-06T05:55:10.227Z,6.10
2023-02-06T05:57:37.300Z,5.63
2023-02-06T06:00:06.190Z,5.80
2023-02-06T06:02:39.982Z,5.93
2023-02-06T06:05:07.450Z,5.82
2023-02-06T06:07:34.653Z,6.45
2023-02-06T06:10:01.838Z,6.05
2023-02-06T06:12:30.631Z,6.68
2023-02-06T06:14:57.773Z,6.65
2023-02-06T06:17:24.928Z,6.07
2023-02-06T06:19:52.016Z,5.65
2023-02-06T06:22:19.110Z,5.82
2023-02-06T06:24:46.181Z,6.13
2023-02-06T06:27:13.301Z,5.90
2023-02-06T06:29:40.435Z,6.55
2023-02-06T06:32:07.565Z,5.38
2023-02-06T06:34:34.770Z,5.82
2023-02-06T06:37:01.947Z,5.70
2023-02-06T06:39:28.989Z,6.63
2023-02-06T06:41:56.168Z,7.07
2023-02-06T06:44:23.384Z,5.55
2023-02-06T06:46:50.541Z,6.03
2023-02-06T06:49:17.728Z,5.82
2023-02-06T06:51:44.781Z,6.85
2023-02-06T06:54:11.828Z,6.78
2023-02-06T06:56:39.203Z,6.22
2023-02-06T06:59:06.363Z,7.05
2023-02-06T07:01:33.890Z,6.25
2023-02-06T07:04:01.295Z,6.25
2023-02-06T07:06:28.628Z,6.32
2023-02-06T07:08:55.710Z,6.30
2023-02-06T07:11:24.452Z,6.78
2023-02-06T07:13:51.759Z,6.65
2023-02-06T07:16:19.400Z,6.38
2023-02-06T07:18:46.650Z,6.50
2023-02-06T07:21:16.480Z,6.82
2023-02-06T07:23:47.277Z,6.60
2023-02-06T07:26:14.614Z,6.78
2023-02-06T07:28:42.365Z,7.72
2023-02-06T07:31:10.148Z,7.13
2023-02-06T07:33:46.620Z,7.00
2023-02-06T07:36:15.517Z,7.43
2023-02-06T07:38:42.661Z,7.55
2023-02-06T07:41:12.814Z,6.70
2023-02-06T07:43:40.149Z,6.75
2023-02-06T07:46:07.365Z,7.05
2023-02-06T07:48:34.406Z,7.18
2023-02-06T07:51:07.042Z,8.05
2023-02-06T07:53:35.043Z,6.65
2023-02-06T07:56:02.349Z,7.20
2023-02-06T07:58:29.440Z,7.40
2023-02-06T08:00:56.593Z,8.27
2023-02-06T08:03:23.669Z,8.23
2023-02-06T08:05:50.782Z,7.25
2023-02-06T08:08:20.529Z,7.78
2023-02-06T08:10:48.237Z,7.28
2023-02-06T08:13:15.760Z,7.13
2023-02-06T08:15:42.796Z,8.32
2023-02-06T08:18:09.899Z,7.75
2023-02-06T08:20:37.056Z,7.57
2023-02-06T08:23:04.336Z,8.10
2023-02-06T08:25:31.445Z,7.82
2023-02-06T08:27:58.849Z,8.85
2023-02-06T08:30:26.085Z,8.95
2023-02-06T08:32:53.367Z,8.35
2023-02-06T08:35:20.526Z,7.68
2023-02-06T08:37:47.630Z,7.57
2023-02-06T08:40:17.931Z,8.30
2023-02-06T08:42:50.369Z,8.25
2023-02-06T08:45:21.990Z,8.18
2023-02-06T08:47:52.390Z,7.63
2023-02-06T08:50:28.525Z,7.38
2023-02-06T08:52:55.891Z,7.40
2023-02-06T08:55:25.197Z,7.20
2023-02-06T08:57:52.457Z,7.28
2023-02-06T09:00:21.004Z,7.05
2023-02-06T09:02:48.206Z,6.85
2023-02-06T09:05:15.707Z,7.88
2023-02-06T09:07:43.475Z,6.75
2023-02-06T09:10:22.166Z,7.60
2023-02-06T09:15:22.358Z,5.63
2023-02-06T09:17:49.439Z,7.05
2023-02-06T09:20:16.805Z,6.78
2023-02-06T09:22:44.752Z,7.88
2023-02-06T09:25:12.316Z,7.80
2023-02-06T09:27:39.661Z,6.60
2023-02-06T09:30:07.572Z,7.50
2023-02-06T09:32:38.128Z,7.20
2023-02-06T09:35:06.043Z,6.68
2023-02-06T09:37:33.644Z,7.65
2023-02-06T09:40:00.743Z,6.97
2023-02-06T09:42:36.002Z,7.05
2023-02-06T09:45:15.566Z,6.88
2023-02-06T09:48:06.031Z,7.63
2023-02-06T09:50:41.473Z,7.50
2023-02-06T09:53:22.507Z,7.03
2023-02-06T09:56:09.995Z,7.43
2023-02-06T09:58:53.950Z,7.75
2023-02-06T10:01:33.739Z,7.93
2023-02-06T10:04:40.372Z,7.45
2023-02-06T10:07:19.866Z,7.57
2023-02-06T10:09:54.334Z,7.90
2023-02-06T10:12:31.352Z,7.88
2023-02-06T10:15:15.492Z,9.18
2023-02-06T10:18:09.604Z,9.57
2023-02-06T10:20:43.567Z,9.18
2023-02-06T10:23:15.254Z,9.02
2023-02-06T10:25:53.837Z,9.82
2023-02-06T10:28:25.563Z,8.70
2023-02-06T10:31:21.282Z,8.95
2023-02-06T10:34:16.543Z,10.10
2023-02-06T10:37:20.322Z,8.07
2023-02-06T10:39:50.301Z,8.38
2023-02-06T10:42:54.484Z,9.07
2023-02-06T10:46:03.116Z,8.23
2023-02-06T10:48:41.990Z,8.63
2023-02-06T10:51:32.478Z,8.23
2023-02-06T10:54:06.146Z,8.32
2023-02-06T10:56:41.355Z,7.80
2023-02-06T10:59:29.485Z,7.05
2023-02-06T11:02:23.057Z,6.97
2023-02-06T11:05:00.760Z,7.75
2023-02-06T11:07:37.513Z,7.65
2023-02-06T11:10:07.166Z,7.40
2023-02-06T11:13:01.961Z,7.53
2023-02-06T11:15:40.793Z,7.80
2023-02-06T11:18:15.029Z,7.35
2023-02-06T11:20:46.520Z,6.65
2023-02-06T11:23:23.361Z,7.57
2023-02-06T11:26:17.070Z,7.20
2023-02-06T11:28:56.757Z,7.18
2023-02-06T11:31:46.250Z,7.40
2023-02-06T11:34:52.945Z,7.20
2023-02-06T11:37:35.938Z,7.18
2023-02-06T11:40:36.018Z,8.35
2023-02-06T11:43:24.488Z,7.10
2023-02-06T11:46:06.983Z,7.05
2023-02-06T11:48:38.762Z,6.87
2023-02-06T11:51:07.951Z,7.45
2023-02-06T11:53:36.433Z,7.35
2023-02-06T11:56:22.348Z,7.53
2023-02-06T11:59:24.406Z,7.70
2023-02-06T12:01:51.673Z,7.20
2023-02-06T12:04:40.030Z,7.03
2023-02-06T12:07:16.559Z,7.38
2023-02-06T12:09:45.690Z,7.20
2023-02-06T12:12:19.118Z,6.93
2023-02-06T12:15:23.690Z,6.72
2023-02-06T12:17:57.007Z,7.13
2023-02-06T12:20:33.812Z,7.25
2023-02-06T12:23:18.530Z,7.28
2023-02-06T12:25:49.837Z,6.82
2023-02-06T12:28:38.426Z,7.85
2023-02-06T12:31:21.403Z,7.35
2023-02-06T12:33:55.072Z,7.60
2023-02-06T12:36:35.506Z,6.75
2023-02-06T12:39:06.297Z,7.50
2023-02-06T12:41:58.447Z,6.68
2023-02-06T12:44:47.339Z,7.13
2023-02-06T12:47:17.417Z,6.97
2023-02-06T12:50:01.138Z,7.40
2023-02-06T12:52:51.890Z,6.97
2023-02-06T12:55:37.627Z,7.65
2023-02-06T12:58:20.836Z,6.78
2023-02-06T13:01:14.790Z,6.45
2023-02-06T13:03:56.110Z,7.47
2023-02-06T13:06:30.336Z,7.75
2023-02-06T13:08:57.576Z,7.70
2023-02-06T13:11:29.023Z,7.63
2023-02-06T13:14:06.056Z,7.30
2023-02-06T13:16:49.865Z,6.50
2023-02-06T13:19:21.313Z,7.95
2023-02-06T13:22:17.518Z,7.72
2023-02-06T13:24:49.989Z,8.10
2023-02-06T13:27:39.641Z,8.50
2023-02-06T13:30:30.310Z,7.15
2023-02-06T13:32:59.644Z,7.63
2023-02-06T13:35:29.405Z,8.10
2023-02-06T13:38:34.947Z,7.75
2023-02-06T13:41:14.382Z,7.30
2023-02-06T13:43:44.785Z,8.15
2023-02-06T13:46:22.039Z,8.00
2023-02-06T13:48:55.342Z,7.57
2023-02-06T13:54:10.758Z,7.70
2023-02-06T13:57:11.869Z,7.65
2023-02-06T13:59:53.471Z,7.50
2023-02-06T14:02:37.625Z,8.07
2023-02-06T14:05:20.358Z,7.63
2023-02-06T14:08:05.880Z,7.43
2023-02-06T14:10:57.843Z,8.85
2023-02-06T14:14:03.972Z,7.22
2023-02-06T14:16:51.115Z,7.63
2023-02-06T14:19:37.100Z,7.68
2023-02-06T14:22:30.113Z,7.30
2023-02-06T14:25:34.085Z,7.47
2023-02-06T14:28:18.954Z,7.13
2023-02-06T14:31:16.592Z,7.97
2023-02-06T14:34:02.773Z,8.43
2023-02-06T14:36:48.307Z,8.50
2023-02-06T14:40:04.319Z,8.30
2023-02-06T14:42:40.121Z,7.90
2023-02-06T14:45:36.137Z,7.60
2023-02-06T14:48:31.428Z,7.93
2023-02-06T14:50:59.675Z,7.20
2023-02-06T14:53:57.218Z,7.75
2023-02-06T14:56:36.822Z,7.78
2023-02-06T14:59:19.925Z,7.68
2023-02-06T15:01:51.412Z,8.80
2023-02-06T15:04:34.800Z,8.45
2023-02-06T15:07:25.707Z,8.07
2023-02-06T15:12:53.172Z,8.60
2023-02-06T15:15:27.874Z,7.88
2023-02-06T15:18:24.271Z,8.40
2023-02-06T15:21:13.827Z,7.93
2023-02-06T15:24:02.786Z,8.82
2023-02-06T15:26:47.676Z,8.13
2023-02-06T15:29:27.212Z,7.90
2023-02-06T15:32:03.488Z,8.48
2023-02-06T15:34:33.675Z,8.93
2023-02-06T15:37:33.446Z,9.38
2023-02-06T15:40:08.775Z,8.65
2023-02-06T15:42:37.157Z,8.68
2023-02-06T15:45:04.908Z,8.77
2023-02-06T15:47:32.854Z,8.55
2023-02-06T15:50:00.706Z,7.22
2023-02-06T15:52:43.178Z,9.32
2023-02-06T15:55:35.187Z,7.90
2023-02-06T15:58:04.889Z,8.15
2023-02-06T16:00:37.783Z,7.82
2023-02-06T16:03:08.606Z,8.10
2023-02-06T16:05:44.096Z,8.02
2023-02-06T16:08:33.428Z,8.57
2023-02-06T16:11:05.537Z,8.13
2023-02-06T16:13:35.240Z,8.93
2023-02-06T16:16:08.651Z,8.85
2023-02-06T16:18:40.510Z,9.02
2023-02-06T16:21:23.535Z,10.52
2023-02-06T16:24:17.014Z,9.80
2023-02-06T16:26:52.424Z,8.50
2023-02-06T16:29:29.478Z,8.75
2023-02-06T16:32:03.173Z,9.38
2023-02-06T16:34:40.936Z,8.80
2023-02-06T16:37:20.633Z,8.30
2023-02-06T16:39:48.090Z,8.27
2023-02-06T16:42:19.675Z,9.05
2023-02-06T16:44:50.272Z,8.02
2023-02-06T16:47:19.820Z,8.55
2023-02-06T16:49:51.110Z,8.63
2023-02-06T16:52:40.401Z,10.38
2023-02-06T16:55:16.551Z,11.20
2023-02-06T16:57:45.194Z,11.88
2023-02-06T17:00:25.460Z,11.40
2023-02-06T17:02:53.755Z,13.25
2023-02-06T17:05:24.214Z,12.68
2023-02-06T17:07:52.052Z,11.48
2023-02-06T17:10:23.128Z,9.50
2023-02-06T17:12:50.737Z,10.00
2023-02-06T17:15:19.676Z,9.88
2023-02-06T17:17:47.273Z,9.88
2023-02-06T17:20:41.942Z,9.52
2023-02-06T17:23:12.348Z,9.45
2023-02-06T17:25:39.960Z,9.38
2023-02-06T17:28:10.010Z,9.93
2023-02-06T17:30:38.332Z,9.32
2023-02-06T17:33:06.467Z,12.35
2023-02-06T17:35:36.824Z,12.32
2023-02-06T17:38:09.282Z,12.95
2023-02-06T17:40:40.997Z,9.48
2023-02-06T17:43:59.478Z,11.20
2023-02-06T17:46:09.119Z,10.07
2023-02-06T17:48:55.473Z,10.63
2023-02-06T17:52:04.184Z,11.13
2023-02-06T17:54:44.934Z,12.70
2023-02-06T17:57:56.781Z,11.48
2023-02-06T18:00:46.318Z,11.02
2023-02-06T18:03:28.088Z,10.90
2023-02-06T18:06:28.186Z,9.75
2023-02-06T18:09:06.813Z,10.43
2023-02-06T18:11:35.954Z,10.93
2023-02-06T18:14:03.303Z,10.02
2023-02-06T18:16:31.712Z,10.13
2023-02-06T18:18:58.818Z,10.75
2023-02-06T18:21:29.045Z,9.40
2023-02-06T18:23:56.173Z,10.98
2023-02-06T18:26:24.381Z,12.40
2023-02-06T18:28:51.637Z,8.98
2023-02-06T18:31:33.417Z,9.18
2023-02-06T18:34:03.189Z,11.98
2023-02-06T18:36:30.477Z,9.00
2023-02-06T18:38:57.780Z,7.75
2023-02-06T18:41:43.191Z,10.52
2023-02-06T18:44:11.370Z,9.75
2023-02-06T18:46:38.867Z,10.48
2023-02-06T18:49:06.653Z,9.18
2023-02-06T18:51:34.018Z,13.80
2023-02-06T18:54:01.653Z,9.52
2023-02-06T18:56:29.105Z,10.13
2023-02-06T18:58:56.525Z,10.90
2023-02-06T19:01:25.670Z,9.80
2023-02-06T19:03:53.510Z,9.57
2023-02-06T19:06:24.021Z,7.20
2023-02-06T19:08:51.237Z,7.50
2023-02-06T19:11:18.582Z,7.68
2023-02-06T19:13:45.828Z,6.72
2023-02-06T19:16:15.274Z,6.75
2023-02-06T19:18:45.320Z,7.00
2023-02-06T19:21:18.695Z,6.40
2023-02-06T19:23:47.137Z,6.68
2023-02-06T19:26:16.077Z,6.40
2023-02-06T19:28:43.714Z,7.20
2023-02-06T19:31:12.584Z,6.43
2023-02-06T19:33:41.305Z,6.85
2023-02-06T19:36:16.095Z,6.47
2023-02-06T19:38:44.178Z,6.85
2023-02-06T19:41:16.457Z,6.03
2023-02-06T19:43:43.604Z,6.10
2023-02-06T19:46:13.617Z,6.20
2023-02-06T19:48:43.366Z,5.57
2023-02-06T19:51:13.145Z,5.70
2023-02-06T19:53:45.416Z,6.38
2023-02-06T19:56:14.027Z,5.93
2023-02-06T19:58:41.847Z,6.07
2023-02-06T20:01:14.847Z,6.25
2023-02-06T20:03:43.041Z,5.88
2023-02-06T20:06:12.875Z,8.73
2023-02-06T20:08:43.028Z,7.10
2023-02-06T20:11:20.641Z,10.55
2023-02-06T20:13:52.063Z,10.00
2023-02-06T20:16:29.198Z,8.07
2023-02-06T20:18:56.533Z,10.48
2023-02-06T20:21:33.722Z,7.32
2023-02-06T20:24:03.107Z,6.13
2023-02-06T20:26:36.774Z,5.90
2023-02-06T20:29:05.721Z,5.95
2023-02-06T20:31:34.484Z,4.93
2023-02-06T20:34:02.403Z,6.03
2023-02-06T20:36:30.014Z,6.05
2023-02-06T20:38:59.968Z,5.55
2023-02-06T20:41:31.073Z,6.25
2023-02-06T20:44:01.790Z,4.35
2023-02-06T20:46:30.853Z,6.53
2023-02-06T20:49:00.466Z,5.75
2023-02-06T20:51:28.653Z,5.95
2023-02-06T20:53:56.121Z,5.45
2023-02-06T20:56:25.973Z,6.28
2023-02-06T20:58:54.810Z,5.82
2023-02-06T21:01:25.859Z,5.65
2023-02-06T21:03:57.043Z,4.97
2023-02-06T21:06:24.439Z,4.57
2023-02-06T21:08:56.721Z,5.18
2023-02-06T21:11:24.301Z,8.10
2023-02-06T21:13:51.425Z,9.20
2023-02-06T21:16:18.514Z,10.52
2023-02-06T21:18:46.221Z,10.23
2023-02-06T21:21:18.595Z,8.68
2023-02-06T21:23:46.759Z,8.67
2023-02-06T21:26:15.015Z,10.82
2023-02-06T21:28:46.503Z,10.15
2023-02-06T21:31:17.443Z,8.45
2023-02-06T21:33:48.994Z,6.20
2023-02-06T21:36:16.665Z,6.80
2023-02-06T21:38:44.731Z,7.32
2023-02-06T21:41:14.922Z,6.47
2023-02-06T21:43:42.701Z,6.45
2023-02-06T21:46:11.094Z,6.20
2023-02-06T21:48:38.693Z,6.55
2023-02-06T21:51:09.736Z,5.63
2023-02-06T21:53:36.963Z,5.47
2023-02-06T21:56:09.775Z,5.63
2023-02-06T21:58:37.305Z,5.68
2023-02-06T22:01:08.939Z,5.55
2023-02-06T22:03:36.346Z,5.75
2023-02-06T22:06:08.836Z,5.43
2023-02-06T22:08:37.306Z,5.22
2023-02-06T22:11:31.629Z,6.47
2023-02-06T22:14:02.295Z,7.80
2023-02-06T22:16:29.786Z,10.05
2023-02-06T22:18:57.958Z,10.00
2023-02-06T22:21:27.644Z,9.15
2023-02-06T22:24:02.286Z,7.07
2023-02-06T22:26:34.012Z,6.53
2023-02-06T22:29:01.272Z,7.68
2023-02-06T22:31:32.664Z,8.13
2023-02-06T22:34:00.938Z,7.78
2023-02-06T22:36:30.608Z,8.18
2023-02-06T22:39:00.582Z,7.50
2023-02-06T22:41:28.155Z,6.95
2023-02-06T22:43:55.856Z,6.60
2023-02-06T22:46:27.279Z,5.78
2023-02-06T22:48:54.923Z,6.70
2023-02-06T22:51:22.916Z,5.35
2023-02-06T22:53:50.868Z,6.25
2023-02-06T22:56:35.095Z,7.50
2023-02-06T22:59:20.520Z,6.43
2023-02-06T23:01:53.344Z,5.80
2023-02-06T23:04:23.186Z,6.82
2023-02-06T23:06:51.121Z,6.40
2023-02-06T23:09:27.254Z,6.10
2023-02-06T23:11:55.053Z,5.97
2023-02-06T23:14:22.452Z,6.72
2023-02-06T23:16:49.842Z,6.60
2023-02-06T23:19:19.270Z,6.47
2023-02-06T23:21:48.025Z,6.03
2023-02-06T23:24:16.946Z,6.20
2023-02-06T23:26:46.313Z,6.63
2023-02-06T23:29:17.331Z,6.13
2023-02-06T23:31:49.877Z,6.72
2023-02-06T23:34:17.868Z,6.38
2023-02-06T23:36:46.147Z,6.18
2023-02-06T23:39:13.744Z,6.68
2023-02-06T23:41:43.868Z,5.00
2023-02-06T23:44:11.086Z,6.75
2023-02-06T23:46:40.087Z,5.60
2023-02-06T23:49:07.923Z,5.18
2023-02-06T23:51:36.729Z,6.15
2023-02-06T23:54:05.126Z,5.82
2023-02-06T23:56:33.250Z,6.40
2023-02-06T23:59:02.775Z,6.13
